createdAt,value
2022-11-08T00:00:37.065Z,8.10
2022-11-08T00:02:10.341Z,8.47
2022-11-08T00:03:43.536Z,8.70
2022-11-08T00:05:34.261Z,8.67
2022-11-08T00:07:24.949Z,8.63
2022-11-08T00:09:15.389Z,8.57
2022-11-08T00:11:05.683Z,9.30
2022-11-08T00:12:57.513Z,8.67
2022-11-08T00:14:30.606Z,9.03
2022-11-08T00:16:03.779Z,9.40
2022-11-08T00:17:36.876Z,9.27
2022-11-08T00:19:09.889Z,9.30
2022-11-08T00:20:42.995Z,9.63
2022-11-08T00:22:16.415Z,10.10
2022-11-08T00:23:49.458Z,9.40
2022-11-08T00:25:22.537Z,9.23
2022-11-08T00:26:55.639Z,10.23
2022-11-08T00:28:30.101Z,9.90
2022-11-08T00:30:03.227Z,9.33
2022-11-08T00:31:35.323Z,10.03
2022-11-08T00:33:08.335Z,9.33
2022-11-08T00:34:40.480Z,9.03
2022-11-08T00:36:13.553Z,10.17
2022-11-08T00:37:46.654Z,9.53
2022-11-08T00:39:19.694Z,9.33
2022-11-08T00:40:52.863Z,8.80
2022-11-08T00:42:25.990Z,8.43
2022-11-08T00:44:00.408Z,9.20
2022-11-08T00:45:33.478Z,10.13
2022-11-08T00:47:06.739Z,10.20
2022-11-08T00:48:39.910Z,10.27
2022-11-08T00:50:12.953Z,10.43
2022-11-08T00:51:46.031Z,9.60
2022-11-08T00:53:19.079Z,10.60
2022-11-08T00:54:52.252Z,10.43
2022-11-08T00:56:25.425Z,9.93
2022-11-08T00:58:00.088Z,9.53
2022-11-08T00:59:35.058Z,11.30
2022-11-08T01:01:10.270Z,10.47
2022-11-08T01:02:43.377Z,10.90
2022-11-08T01:04:17.924Z,11.10
2022-11-08T01:05:52.134Z,11.00
2022-11-08T01:07:25.166Z,10.50
2022-11-08T01:08:58.445Z,10.60
2022-11-08T01:10:30.556Z,10.50
2022-11-08T01:12:03.681Z,10.83
2022-11-08T01:13:36.015Z,10.80
2022-11-08T01:15:11.031Z,10.73
2022-11-08T01:16:45.279Z,10.70
2022-11-08T01:18:18.222Z,10.90
2022-11-08T01:19:51.494Z,10.27
2022-11-08T01:21:25.078Z,10.80
2022-11-08T01:22:57.142Z,10.90
2022-11-08T01:24:30.205Z,10.17
2022-11-08T01:26:04.659Z,10.40
2022-11-08T01:27:37.745Z,10.77
2022-11-08T01:29:10.808Z,11.17
2022-11-08T01:30:45.564Z,10.63
2022-11-08T01:32:18.640Z,11.77
2022-11-08T01:33:52.678Z,11.63
2022-11-08T01:35:25.782Z,11.43
2022-11-08T01:36:58.897Z,11.20
2022-11-08T01:38:30.987Z,12.03
2022-11-08T01:40:05.222Z,11.87
2022-11-08T01:41:39.830Z,12.53
2022-11-08T01:43:34.774Z,11.67
2022-11-08T01:45:11.705Z,12.13
2022-11-08T01:46:48.261Z,12.30
2022-11-08T01:48:20.539Z,12.67
2022-11-08T01:49:57.337Z,11.20
2022-11-08T01:51:34.252Z,11.73
2022-11-08T01:53:07.349Z,12.17
2022-11-08T01:54:44.144Z,12.07
2022-11-08T01:56:17.856Z,12.23
2022-11-08T01:57:56.219Z,11.77
2022-11-08T01:59:28.972Z,12.23
2022-11-08T02:01:03.805Z,12.83
2022-11-08T02:02:39.657Z,12.33
2022-11-08T02:04:16.348Z,12.43
2022-11-08T02:05:49.636Z,12.63
2022-11-08T02:07:24.003Z,12.00
2022-11-08T02:09:01.435Z,11.30
2022-11-08T02:10:37.097Z,12.60
2022-11-08T02:12:11.650Z,11.83
2022-11-08T02:13:44.747Z,12.33
2022-11-08T02:15:19.339Z,11.97
2022-11-08T02:16:52.469Z,11.77
2022-11-08T02:18:29.768Z,11.13
2022-11-08T02:20:02.891Z,12.03
2022-11-08T02:21:40.327Z,11.60
2022-11-08T02:23:21.655Z,12.07
2022-11-08T02:24:56.158Z,10.07
2022-11-08T02:26:32.388Z,11.10
2022-11-08T02:28:05.870Z,11.03
2022-11-08T02:29:37.998Z,10.57
2022-11-08T02:31:11.428Z,10.80
2022-11-08T02:32:44.702Z,11.43
2022-11-08T02:34:17.084Z,9.93
2022-11-08T02:35:52.970Z,10.50
2022-11-08T02:37:27.638Z,10.90
2022-11-08T02:39:00.664Z,9.87
2022-11-08T02:40:46.771Z,11.20
2022-11-08T02:42:21.504Z,10.30
2022-11-08T02:43:54.595Z,10.67
2022-11-08T02:45:27.646Z,11.60
2022-11-08T02:47:00.760Z,11.80
2022-11-08T02:48:34.054Z,10.57
2022-11-08T02:50:08.244Z,10.90
2022-11-08T02:51:40.367Z,10.53
2022-11-08T02:53:13.818Z,11.37
2022-11-08T02:54:46.923Z,12.03
2022-11-08T02:56:20.521Z,12.27
2022-11-08T02:57:53.635Z,12.60
2022-11-08T02:59:26.684Z,12.93
2022-11-08T03:00:59.863Z,12.90
2022-11-08T03:02:33.001Z,13.00
2022-11-08T03:04:06.500Z,12.83
2022-11-08T03:05:39.626Z,11.93
2022-11-08T03:07:12.707Z,10.40
2022-11-08T03:08:45.764Z,10.30
2022-11-08T03:10:18.601Z,10.17
2022-11-08T03:11:53.032Z,9.00
2022-11-08T03:13:26.110Z,11.00
2022-11-08T03:14:59.137Z,10.70
2022-11-08T03:16:32.442Z,10.60
2022-11-08T03:18:05.588Z,10.83
2022-11-08T03:19:38.692Z,10.87
2022-11-08T03:21:11.768Z,10.00
2022-11-08T03:22:43.858Z,10.43
2022-11-08T03:24:17.036Z,10.83
2022-11-08T03:25:50.115Z,11.53
2022-11-08T03:27:25.010Z,11.27
2022-11-08T03:28:58.108Z,11.47
2022-11-08T03:30:31.110Z,11.67
2022-11-08T03:32:04.291Z,10.50
2022-11-08T03:33:36.349Z,9.67
2022-11-08T03:35:10.250Z,10.60
2022-11-08T03:36:43.352Z,10.47
2022-11-08T03:38:15.794Z,10.20
2022-11-08T03:39:49.127Z,9.77
2022-11-08T03:41:22.189Z,11.33
2022-11-08T03:42:58.429Z,10.80
2022-11-08T03:44:31.839Z,11.60
2022-11-08T03:46:04.877Z,11.40
2022-11-08T03:47:38.823Z,12.23
2022-11-08T03:49:11.870Z,13.20
2022-11-08T03:50:45.006Z,12.40
2022-11-08T03:52:18.009Z,12.03
2022-11-08T03:53:51.279Z,11.17
2022-11-08T03:55:26.896Z,11.20
2022-11-08T03:56:59.973Z,10.43
2022-11-08T03:58:35.879Z,11.43
2022-11-08T04:00:11.518Z,11.03
2022-11-08T04:01:44.819Z,11.33
2022-11-08T04:03:17.951Z,10.97
2022-11-08T04:04:51.020Z,10.37
2022-11-08T04:06:24.214Z,11.23
2022-11-08T04:07:56.474Z,10.10
2022-11-08T04:09:29.486Z,11.20
2022-11-08T04:11:22.499Z,10.93
2022-11-08T04:13:13.158Z,11.33
2022-11-08T04:15:05.114Z,12.30
2022-11-08T04:16:38.253Z,11.67
2022-11-08T04:18:28.990Z,11.43
2022-11-08T04:20:19.570Z,11.17
2022-11-08T04:21:54.671Z,12.23
2022-11-08T04:23:28.963Z,13.90
2022-11-08T04:25:01.964Z,13.90
2022-11-08T04:26:35.025Z,14.63
2022-11-08T04:28:07.298Z,14.53
2022-11-08T04:29:40.520Z,14.90
2022-11-08T04:31:17.476Z,15.97
2022-11-08T04:32:49.519Z,15.70
2022-11-08T04:34:22.629Z,16.17
2022-11-08T04:35:56.030Z,15.80
2022-11-08T04:37:29.041Z,15.03
2022-11-08T04:39:02.114Z,14.70
2022-11-08T04:40:34.202Z,14.47
2022-11-08T04:42:07.299Z,14.97
2022-11-08T04:43:40.524Z,14.10
2022-11-08T04:45:13.585Z,13.10
2022-11-08T04:46:47.973Z,14.10
2022-11-08T04:48:21.178Z,12.93
2022-11-08T04:49:54.518Z,14.40
2022-11-08T04:51:29.409Z,14.27
2022-11-08T04:53:01.450Z,12.93
2022-11-08T04:54:34.525Z,14.30
2022-11-08T04:56:10.230Z,13.57
2022-11-08T04:57:42.289Z,13.57
2022-11-08T04:59:15.309Z,13.27
2022-11-08T05:00:47.394Z,13.03
2022-11-08T05:02:21.895Z,13.47
2022-11-08T05:03:55.838Z,13.20
2022-11-08T05:05:28.834Z,13.13
2022-11-08T05:07:01.891Z,13.90
2022-11-08T05:08:35.363Z,13.07
2022-11-08T05:10:09.117Z,13.43
2022-11-08T05:11:42.143Z,14.20
2022-11-08T05:13:15.207Z,13.53
2022-11-08T05:14:48.261Z,13.47
2022-11-08T05:16:23.657Z,13.33
2022-11-08T05:17:58.046Z,13.70
2022-11-08T05:19:44.982Z,13.30
2022-11-08T05:21:38.591Z,13.20
2022-11-08T05:23:26.718Z,13.10
2022-11-08T05:24:59.736Z,13.07
2022-11-08T05:26:35.243Z,12.80
2022-11-08T05:28:07.318Z,13.27
2022-11-08T05:29:42.326Z,13.70
2022-11-08T05:31:15.903Z,13.30
2022-11-08T05:32:50.751Z,12.97
2022-11-08T05:34:25.499Z,12.93
2022-11-08T05:36:05.665Z,13.00
2022-11-08T05:37:42.931Z,12.83
2022-11-08T05:39:16.038Z,13.10
2022-11-08T05:40:49.067Z,12.90
2022-11-08T05:42:22.139Z,12.50
2022-11-08T05:43:56.595Z,12.60
2022-11-08T05:45:29.672Z,12.80
2022-11-08T05:47:02.868Z,12.97
2022-11-08T05:48:36.928Z,12.93
2022-11-08T05:50:15.490Z,13.13
2022-11-08T05:51:51.406Z,12.23
2022-11-08T05:53:24.533Z,12.20
2022-11-08T05:54:57.658Z,12.10
2022-11-08T05:56:30.682Z,12.73
2022-11-08T05:58:03.898Z,12.40
2022-11-08T05:59:35.960Z,11.40
2022-11-08T06:01:11.172Z,12.33
2022-11-08T06:02:44.230Z,12.10
2022-11-08T06:04:17.522Z,12.00
2022-11-08T06:05:51.934Z,12.47
2022-11-08T06:07:25.167Z,12.53
2022-11-08T06:08:58.243Z,12.90
2022-11-08T06:10:31.311Z,12.57
2022-11-08T06:12:05.114Z,12.20
2022-11-08T06:13:39.268Z,11.47
2022-11-08T06:15:12.496Z,10.10
2022-11-08T06:16:45.620Z,11.00
2022-11-08T06:18:18.669Z,11.07
2022-11-08T06:19:51.738Z,12.13
2022-11-08T06:21:27.238Z,14.67
2022-11-08T06:23:00.288Z,13.33
2022-11-08T06:24:33.334Z,12.77
2022-11-08T06:26:06.693Z,12.97
2022-11-08T06:27:40.133Z,13.40
2022-11-08T06:29:13.337Z,11.87
2022-11-08T06:30:46.480Z,11.53
2022-11-08T06:32:19.773Z,11.40
2022-11-08T06:33:53.074Z,10.67
2022-11-08T06:35:26.278Z,10.60
2022-11-08T06:37:00.333Z,11.73
2022-11-08T06:38:33.447Z,12.47
2022-11-08T06:40:07.601Z,12.20
2022-11-08T06:41:40.706Z,12.77
2022-11-08T06:43:19.099Z,12.20
2022-11-08T06:44:53.090Z,13.27
2022-11-08T06:46:26.662Z,14.10
2022-11-08T06:48:00.339Z,13.07
2022-11-08T06:49:33.420Z,11.13
2022-11-08T06:51:06.808Z,9.63
2022-11-08T06:52:41.575Z,9.23
2022-11-08T06:54:17.797Z,10.00
2022-11-08T06:55:51.026Z,8.83
2022-11-08T06:57:24.259Z,9.00
2022-11-08T06:58:57.283Z,9.57
2022-11-08T07:00:30.619Z,10.20
2022-11-08T07:02:03.841Z,8.40
2022-11-08T07:03:37.520Z,8.37
2022-11-08T07:05:11.060Z,8.03
2022-11-08T07:06:44.357Z,7.47
2022-11-08T07:08:23.622Z,7.63
2022-11-08T07:10:02.326Z,8.00
2022-11-08T07:11:37.071Z,7.60
2022-11-08T07:13:13.308Z,7.93
2022-11-08T07:14:46.389Z,8.57
2022-11-08T07:16:19.475Z,8.87
2022-11-08T07:17:52.525Z,8.10
2022-11-08T07:19:25.658Z,7.67
2022-11-08T07:21:02.004Z,8.50
2022-11-08T07:22:35.330Z,7.37
2022-11-08T07:24:10.083Z,7.70
2022-11-08T07:25:43.402Z,8.07
2022-11-08T07:27:16.511Z,8.10
2022-11-08T07:28:49.562Z,8.20
2022-11-08T07:30:22.693Z,8.53
2022-11-08T07:31:55.803Z,8.10
2022-11-08T07:33:29.204Z,8.03
2022-11-08T07:35:02.270Z,8.07
2022-11-08T07:36:35.292Z,8.27
2022-11-08T07:38:08.775Z,8.80
2022-11-08T07:39:43.315Z,8.57
2022-11-08T07:41:16.379Z,8.10
2022-11-08T07:43:10.778Z,8.23
2022-11-08T07:44:42.804Z,8.37
2022-11-08T07:46:15.817Z,8.77
2022-11-08T07:47:48.860Z,8.37
2022-11-08T07:49:21.979Z,8.47
2022-11-08T07:50:55.333Z,8.77
2022-11-08T07:52:28.538Z,8.53
2022-11-08T07:54:03.180Z,8.23
2022-11-08T07:55:39.368Z,8.13
2022-11-08T07:57:12.478Z,8.30
2022-11-08T07:58:45.494Z,8.57
2022-11-08T08:00:18.998Z,8.70
2022-11-08T08:01:52.271Z,9.07
2022-11-08T08:03:25.418Z,8.20
2022-11-08T08:04:58.471Z,8.03
2022-11-08T08:06:31.520Z,8.30
2022-11-08T08:08:05.538Z,8.10
2022-11-08T08:09:38.583Z,8.03
2022-11-08T08:11:12.963Z,8.27
2022-11-08T08:12:47.076Z,8.20
2022-11-08T08:14:20.319Z,8.43
2022-11-08T08:15:53.437Z,8.30
2022-11-08T08:17:26.541Z,8.70
2022-11-08T08:18:59.584Z,7.73
2022-11-08T08:20:33.601Z,7.53
2022-11-08T08:22:07.130Z,8.10
2022-11-08T08:23:40.150Z,8.40
2022-11-08T08:25:13.489Z,7.20
2022-11-08T08:26:47.881Z,8.20
2022-11-08T08:28:20.970Z,7.77
2022-11-08T08:29:54.001Z,7.27
2022-11-08T08:31:27.116Z,7.37
2022-11-08T08:34:58.466Z,7.00
2022-11-08T08:36:31.531Z,7.47
2022-11-08T08:38:05.841Z,7.73
2022-11-08T08:39:38.953Z,7.00
2022-11-08T08:41:12.081Z,7.27
2022-11-08T08:42:46.472Z,7.47
2022-11-08T08:44:19.527Z,7.40
2022-11-08T08:45:52.594Z,7.20
2022-11-08T08:47:25.866Z,7.43
2022-11-08T08:48:58.883Z,6.83
2022-11-08T08:50:33.149Z,7.13
2022-11-08T08:52:06.397Z,7.03
2022-11-08T08:53:39.820Z,7.03
2022-11-08T08:55:12.911Z,7.03
2022-11-08T08:56:46.296Z,7.10
2022-11-08T08:58:22.301Z,6.37
2022-11-08T09:01:49.035Z,7.00
2022-11-08T09:03:22.593Z,6.83
2022-11-08T09:04:55.974Z,6.53
2022-11-08T09:06:29.507Z,7.27
2022-11-08T09:08:03.580Z,7.10
2022-11-08T09:09:37.475Z,6.90
2022-11-08T09:11:10.858Z,6.07
2022-11-08T09:12:44.263Z,6.03
2022-11-08T09:14:18.962Z,6.87
2022-11-08T09:15:52.339Z,5.97
2022-11-08T09:17:25.748Z,6.47
2022-11-08T09:18:59.161Z,6.27
2022-11-08T09:20:32.505Z,6.60
2022-11-08T09:22:06.016Z,5.80
2022-11-08T09:23:41.461Z,6.30
2022-11-08T09:25:14.815Z,6.97
2022-11-08T09:26:48.168Z,6.03
2022-11-08T09:28:21.719Z,5.93
2022-11-08T09:29:56.422Z,6.37
2022-11-08T09:31:29.811Z,5.83
2022-11-08T09:33:03.597Z,5.80
2022-11-08T09:34:37.440Z,6.13
2022-11-08T09:36:13.231Z,5.80
2022-11-08T09:37:49.645Z,5.93
2022-11-08T09:39:23.389Z,6.10
2022-11-08T09:41:02.448Z,5.87
2022-11-08T09:42:46.932Z,6.17
2022-11-08T09:44:27.361Z,5.43
2022-11-08T09:46:02.134Z,5.80
2022-11-08T09:47:37.755Z,5.47
2022-11-08T09:49:15.002Z,5.27
2022-11-08T09:50:48.692Z,5.50
2022-11-08T09:52:23.414Z,4.83
2022-11-08T09:53:57.898Z,5.30
2022-11-08T09:55:33.780Z,4.57
2022-11-08T09:57:08.073Z,4.80
2022-11-08T09:58:43.439Z,4.53
2022-11-08T10:00:17.054Z,4.53
2022-11-08T10:01:51.907Z,4.70
2022-11-08T10:03:26.226Z,4.13
2022-11-08T10:05:01.753Z,4.33
2022-11-08T10:06:44.027Z,4.23
2022-11-08T10:08:24.255Z,3.73
2022-11-08T10:10:06.744Z,3.47
2022-11-08T10:11:47.277Z,2.67
2022-11-08T10:13:22.989Z,3.37
2022-11-08T10:15:08.827Z,3.43
2022-11-08T10:16:46.872Z,3.63
2022-11-08T10:18:33.547Z,3.27
2022-11-08T10:20:12.257Z,2.90
2022-11-08T10:21:52.006Z,2.97
2022-11-08T10:23:29.283Z,3.40
2022-11-08T10:25:03.517Z,2.73
2022-11-08T10:26:38.363Z,2.87
2022-11-08T10:28:13.952Z,3.10
2022-11-08T10:29:47.641Z,3.03
2022-11-08T10:31:21.635Z,2.60
2022-11-08T10:32:55.955Z,2.80
2022-11-08T10:34:35.639Z,2.40
2022-11-08T10:36:11.855Z,3.13
2022-11-08T10:37:46.449Z,2.50
2022-11-08T10:39:25.352Z,2.50
2022-11-08T10:41:01.886Z,2.30
2022-11-08T10:42:39.247Z,2.17
2022-11-08T10:44:15.392Z,2.20
2022-11-08T10:45:48.759Z,2.10
2022-11-08T10:47:24.897Z,1.97
2022-11-08T10:48:59.551Z,1.70
2022-11-08T10:50:39.069Z,1.80
2022-11-08T10:52:20.600Z,2.00
2022-11-08T10:53:53.653Z,1.63
2022-11-08T10:55:30.914Z,1.60
2022-11-08T10:57:03.945Z,1.80
2022-11-08T10:58:39.349Z,1.73
2022-11-08T11:00:28.410Z,1.90
2022-11-08T11:02:02.225Z,2.10
2022-11-08T11:03:35.299Z,1.90
2022-11-08T11:05:29.374Z,1.83
2022-11-08T11:07:05.668Z,2.10
2022-11-08T11:08:49.893Z,1.97
2022-11-08T11:10:25.950Z,1.90
2022-11-08T11:12:00.243Z,2.33
2022-11-08T11:13:33.310Z,2.20
2022-11-08T11:15:15.059Z,2.03
2022-11-08T11:16:56.341Z,2.17
2022-11-08T11:18:31.824Z,1.80
2022-11-08T11:20:05.383Z,2.00
2022-11-08T11:21:40.864Z,1.80
2022-11-08T11:23:15.310Z,1.90
2022-11-08T11:24:51.296Z,2.10
2022-11-08T11:26:35.418Z,1.93
2022-11-08T11:28:15.234Z,2.20
2022-11-08T11:29:48.578Z,1.93
2022-11-08T11:31:22.437Z,2.10
2022-11-08T11:33:04.324Z,1.80
2022-11-08T11:34:44.741Z,1.90
2022-11-08T11:36:21.742Z,1.93
2022-11-08T11:37:56.516Z,2.23
2022-11-08T11:39:36.568Z,2.30
2022-11-08T11:41:16.614Z,2.03
2022-11-08T11:43:00.841Z,2.00
2022-11-08T11:44:40.311Z,1.90
2022-11-08T11:46:21.365Z,2.00
2022-11-08T11:47:56.756Z,2.10
2022-11-08T11:49:32.119Z,2.33
2022-11-08T11:51:05.271Z,2.00
2022-11-08T11:52:38.447Z,2.20
2022-11-08T11:54:16.398Z,2.70
2022-11-08T11:56:10.433Z,2.10
2022-11-08T11:57:57.258Z,2.10
2022-11-08T11:59:58.399Z,2.50
2022-11-08T12:01:49.925Z,2.20
2022-11-08T12:03:47.058Z,2.23
2022-11-08T12:05:55.921Z,1.90
2022-11-08T12:07:32.710Z,2.30
2022-11-08T12:09:19.496Z,2.37
2022-11-08T12:11:06.143Z,2.50
2022-11-08T12:12:50.969Z,1.87
2022-11-08T12:14:42.424Z,2.00
2022-11-08T12:16:20.992Z,2.20
2022-11-08T12:18:30.544Z,2.10
2022-11-08T12:20:39.693Z,2.00
2022-11-08T12:22:40.524Z,2.13
2022-11-08T12:24:33.121Z,1.83
2022-11-08T12:26:16.478Z,2.10
2022-11-08T12:27:53.389Z,2.00
2022-11-08T12:29:30.544Z,2.33
2022-11-08T12:31:16.092Z,2.20
2022-11-08T12:33:15.406Z,2.10
2022-11-08T12:35:02.189Z,2.47
2022-11-08T12:36:43.746Z,2.00
2022-11-08T12:38:23.607Z,1.87
2022-11-08T12:40:01.084Z,2.10
2022-11-08T12:41:43.658Z,1.80
2022-11-08T12:43:34.028Z,2.30
2022-11-08T12:45:42.695Z,2.50
2022-11-08T12:47:27.145Z,2.20
2022-11-08T12:49:22.924Z,2.50
2022-11-08T12:51:02.896Z,2.50
2022-11-08T12:52:56.152Z,2.37
2022-11-08T12:54:36.686Z,2.67
2022-11-08T12:56:15.821Z,2.70
2022-11-08T12:57:54.376Z,2.40
2022-11-08T12:59:31.144Z,2.83
2022-11-08T13:01:07.787Z,2.80
2022-11-08T13:02:41.767Z,2.97
2022-11-08T13:04:52.769Z,2.70
2022-11-08T13:06:30.978Z,3.10
2022-11-08T13:08:12.720Z,2.80
2022-11-08T13:09:52.827Z,3.10
2022-11-08T13:11:33.363Z,3.33
2022-11-08T13:13:24.007Z,2.90
2022-11-08T13:14:59.647Z,3.17
2022-11-08T13:16:39.912Z,3.03
2022-11-08T13:18:35.326Z,3.27
2022-11-08T13:20:39.979Z,3.47
2022-11-08T13:22:42.403Z,3.60
2022-11-08T13:24:44.409Z,3.60
2022-11-08T13:26:23.818Z,3.80
2022-11-08T13:27:56.896Z,3.47
2022-11-08T13:29:33.259Z,3.50
2022-11-08T13:31:27.167Z,3.70
2022-11-08T13:33:06.273Z,3.60
2022-11-08T13:34:47.134Z,3.90
2022-11-08T13:36:31.886Z,4.70
2022-11-08T13:38:19.856Z,4.60
2022-11-08T13:40:29.005Z,5.70
2022-11-08T13:42:04.844Z,5.30
2022-11-08T13:43:38.030Z,4.87
2022-11-08T13:45:27.227Z,4.97
2022-11-08T13:47:00.298Z,5.17
2022-11-08T13:48:37.255Z,4.63
2022-11-08T13:50:47.597Z,4.83
2022-11-08T13:52:44.387Z,3.63
2022-11-08T13:54:50.101Z,2.73
2022-11-08T13:56:48.634Z,2.83
2022-11-08T13:58:34.272Z,2.97
2022-11-08T14:00:33.943Z,3.23
2022-11-08T14:02:30.946Z,3.23
2022-11-08T14:04:04.142Z,3.27
2022-11-08T14:05:49.287Z,3.10
2022-11-08T14:07:29.357Z,3.33
2022-11-08T14:09:11.533Z,3.53
2022-11-08T14:11:21.892Z,3.80
2022-11-08T14:13:05.482Z,4.10
2022-11-08T14:14:53.224Z,5.80
2022-11-08T14:16:32.569Z,5.90
2022-11-08T14:18:10.994Z,6.50
2022-11-08T14:19:46.670Z,7.17
2022-11-08T14:21:21.096Z,6.53
2022-11-08T14:22:54.382Z,6.90
2022-11-08T14:24:30.152Z,6.63
2022-11-08T14:26:05.903Z,6.93
2022-11-08T14:27:41.955Z,6.83
2022-11-08T14:29:17.389Z,6.70
2022-11-08T14:30:51.197Z,6.50
2022-11-08T14:32:25.625Z,6.73
2022-11-08T14:33:59.955Z,5.77
2022-11-08T14:35:33.253Z,6.00
2022-11-08T14:37:13.694Z,6.57
2022-11-08T14:38:49.783Z,6.77
2022-11-08T14:40:25.252Z,6.73
2022-11-08T14:42:01.032Z,6.00
2022-11-08T14:43:42.474Z,6.03
2022-11-08T14:45:20.612Z,6.43
2022-11-08T14:46:56.632Z,6.50
2022-11-08T14:48:32.021Z,6.47
2022-11-08T14:50:16.554Z,6.13
2022-11-08T14:52:07.670Z,5.93
2022-11-08T14:53:47.464Z,6.23
2022-11-08T14:55:25.154Z,6.17
2022-11-08T14:56:58.241Z,5.83
2022-11-08T14:58:31.401Z,6.00
2022-11-08T15:00:10.839Z,6.30
2022-11-08T15:01:48.984Z,5.80
2022-11-08T15:03:23.197Z,6.30
2022-11-08T15:04:57.680Z,6.60
2022-11-08T15:06:36.037Z,6.13
2022-11-08T15:08:20.835Z,6.70
2022-11-08T15:09:54.422Z,6.20
2022-11-08T15:11:30.090Z,6.60
2022-11-08T15:13:03.310Z,6.70
2022-11-08T15:14:37.951Z,6.77
2022-11-08T15:16:12.305Z,6.30
2022-11-08T15:17:45.877Z,6.80
2022-11-08T15:19:30.399Z,6.37
2022-11-08T15:21:07.699Z,6.50
2022-11-08T15:22:43.953Z,7.57
2022-11-08T15:24:18.171Z,7.07
2022-11-08T15:25:57.507Z,6.87
2022-11-08T15:27:30.795Z,6.10
2022-11-08T15:29:07.975Z,5.93
2022-11-08T15:30:43.979Z,6.97
2022-11-08T15:32:18.799Z,6.70
2022-11-08T15:33:51.852Z,6.40
2022-11-08T15:35:31.944Z,6.60
2022-11-08T15:37:20.394Z,6.67
2022-11-08T15:38:53.484Z,6.47
2022-11-08T15:40:30.510Z,14.77
2022-11-08T15:42:11.224Z,7.27
2022-11-08T15:43:44.220Z,7.17
2022-11-08T15:45:26.439Z,7.90
2022-11-08T15:46:59.465Z,13.57
2022-11-08T15:48:33.391Z,7.37
2022-11-08T15:50:16.302Z,7.20
2022-11-08T15:51:50.768Z,7.07
2022-11-08T15:53:26.400Z,7.10
2022-11-08T15:54:59.890Z,6.67
2022-11-08T15:56:32.969Z,6.97
2022-11-08T15:58:11.522Z,7.20
2022-11-08T15:59:44.596Z,7.03
2022-11-08T16:01:20.265Z,7.00
2022-11-08T16:02:54.023Z,7.23
2022-11-08T16:04:28.678Z,7.80
2022-11-08T16:06:01.812Z,7.67
2022-11-08T16:07:34.909Z,7.40
2022-11-08T16:09:09.274Z,7.30
2022-11-08T16:10:45.516Z,7.60
2022-11-08T16:12:18.725Z,7.93
2022-11-08T16:13:52.081Z,8.00
2022-11-08T16:15:27.112Z,7.43
2022-11-08T16:17:00.222Z,8.23
2022-11-08T16:18:34.373Z,9.00
2022-11-08T16:20:26.938Z,7.73
2022-11-08T16:22:07.135Z,8.20
2022-11-08T16:23:41.171Z,8.70
2022-11-08T16:25:15.750Z,8.23
2022-11-08T16:26:50.129Z,8.77
2022-11-08T16:28:28.416Z,9.03
2022-11-08T16:30:01.676Z,8.73
2022-11-08T16:31:35.224Z,9.23
2022-11-08T16:33:19.709Z,8.90
2022-11-08T16:34:52.736Z,11.17
2022-11-08T16:36:27.828Z,9.83
2022-11-08T16:38:00.917Z,8.93
2022-11-08T16:39:33.959Z,9.13
2022-11-08T16:41:08.472Z,9.00
2022-11-08T16:42:41.487Z,9.07
2022-11-08T16:44:14.675Z,8.87
2022-11-08T16:46:05.054Z,9.77
2022-11-08T16:47:39.424Z,8.57
2022-11-08T16:49:22.136Z,9.60
2022-11-08T16:51:00.265Z,9.60
2022-11-08T16:52:33.326Z,9.17
2022-11-08T16:54:16.104Z,9.50
2022-11-08T16:55:49.516Z,10.20
2022-11-08T16:57:39.590Z,9.30
2022-11-08T16:59:12.698Z,9.20
2022-11-08T17:00:46.419Z,10.33
2022-11-08T17:02:25.866Z,9.50
2022-11-08T17:03:58.897Z,9.87
2022-11-08T17:05:32.043Z,9.13
2022-11-08T17:07:08.859Z,10.00
2022-11-08T17:08:44.704Z,9.87
2022-11-08T17:10:19.681Z,10.13
2022-11-08T17:11:52.788Z,10.03
2022-11-08T17:13:27.165Z,10.13
2022-11-08T17:15:00.338Z,10.07
2022-11-08T17:16:33.472Z,9.20
2022-11-08T17:18:06.620Z,9.97
2022-11-08T17:19:39.662Z,9.30
2022-11-08T17:21:43.274Z,9.53
2022-11-08T17:23:09.022Z,10.00
2022-11-08T17:24:42.236Z,9.83
2022-11-08T17:26:15.331Z,10.77
2022-11-08T17:27:50.025Z,10.10
2022-11-08T17:29:24.494Z,9.67
2022-11-08T17:30:57.528Z,9.33
2022-11-08T17:32:30.563Z,9.57
2022-11-08T17:34:03.645Z,9.17
2022-11-08T17:35:41.037Z,9.33
2022-11-08T17:37:16.745Z,9.60
2022-11-08T17:38:49.783Z,9.23
2022-11-08T17:40:22.833Z,9.47
2022-11-08T17:41:55.877Z,9.10
2022-11-08T17:43:28.927Z,9.33
2022-11-08T17:45:03.375Z,9.27
2022-11-08T17:46:36.416Z,9.27
2022-11-08T17:48:09.445Z,9.00
2022-11-08T17:49:44.059Z,8.80
2022-11-08T17:51:17.815Z,9.33
2022-11-08T17:52:54.135Z,9.10
2022-11-08T17:54:27.170Z,8.67
2022-11-08T17:56:02.335Z,8.73
2022-11-08T17:57:35.538Z,8.97
2022-11-08T17:59:08.572Z,8.03
2022-11-08T18:00:44.126Z,8.97
2022-11-08T18:02:17.421Z,8.20
2022-11-08T18:03:51.053Z,9.57
2022-11-08T18:05:24.083Z,8.43
2022-11-08T18:06:59.439Z,8.47
2022-11-08T18:08:34.391Z,8.97
2022-11-08T18:10:09.204Z,8.90
2022-11-08T18:11:47.585Z,8.93
2022-11-08T18:13:21.165Z,8.37
2022-11-08T18:14:54.572Z,9.57
2022-11-08T18:16:29.736Z,14.80
2022-11-08T18:18:02.766Z,10.87
2022-11-08T18:19:35.818Z,8.60
2022-11-08T18:21:09.538Z,8.80
2022-11-08T18:22:42.597Z,8.67
2022-11-08T18:24:16.023Z,8.77
2022-11-08T18:25:49.961Z,8.13
2022-11-08T18:27:23.044Z,8.70
2022-11-08T18:28:56.104Z,8.03
2022-11-08T18:30:29.362Z,7.80
2022-11-08T18:32:03.831Z,7.93
2022-11-08T18:33:37.920Z,8.67
2022-11-08T18:35:11.685Z,8.87
2022-11-08T18:36:44.753Z,8.90
2022-11-08T18:38:17.819Z,9.40
2022-11-08T18:39:50.866Z,9.40
2022-11-08T18:41:25.836Z,9.17
2022-11-08T18:42:58.903Z,9.47
2022-11-08T18:44:32.024Z,9.67
2022-11-08T18:46:05.551Z,8.90
2022-11-08T18:47:39.930Z,9.43
2022-11-08T18:49:13.001Z,9.00
2022-11-08T18:50:50.005Z,9.37
2022-11-08T18:52:23.064Z,8.70
2022-11-08T18:53:56.307Z,9.03
2022-11-08T18:55:31.323Z,9.13
2022-11-08T18:57:04.583Z,8.47
2022-11-08T18:58:37.865Z,8.67
2022-11-08T19:00:11.849Z,8.90
2022-11-08T19:01:44.967Z,8.30
2022-11-08T19:03:19.899Z,8.90
2022-11-08T19:04:53.182Z,9.17
2022-11-08T19:06:26.450Z,10.17
2022-11-08T19:07:59.547Z,11.63
2022-11-08T19:09:32.579Z,9.23
2022-11-08T19:11:08.130Z,9.20
2022-11-08T19:12:41.307Z,9.63
2022-11-08T19:14:14.455Z,8.17
2022-11-08T19:15:56.951Z,8.80
2022-11-08T19:17:30.698Z,8.40
2022-11-08T19:19:06.331Z,8.30
2022-11-08T19:20:39.410Z,8.67
2022-11-08T19:22:12.462Z,8.60
2022-11-08T19:23:46.558Z,8.50
2022-11-08T19:25:19.679Z,8.27
2022-11-08T19:26:52.771Z,8.23
2022-11-08T19:28:30.282Z,9.03
2022-11-08T19:30:06.447Z,8.57
2022-11-08T19:31:40.189Z,7.90
2022-11-08T19:33:13.252Z,8.00
2022-11-08T19:34:48.212Z,8.27
2022-11-08T19:36:22.900Z,7.90
2022-11-08T19:37:55.997Z,7.23
2022-11-08T19:39:30.046Z,7.37
2022-11-08T19:41:03.936Z,7.87
2022-11-08T19:42:37.172Z,7.93
2022-11-08T19:44:11.213Z,7.53
2022-11-08T19:45:50.633Z,7.90
2022-11-08T19:47:24.915Z,7.90
2022-11-08T19:48:59.577Z,7.77
2022-11-08T19:50:34.118Z,7.93
2022-11-08T19:52:07.173Z,7.93
2022-11-08T19:53:40.833Z,8.63
2022-11-08T19:55:13.938Z,7.73
2022-11-08T19:58:40.093Z,8.60
2022-11-08T20:00:15.436Z,8.83
2022-11-08T20:01:48.550Z,7.77
2022-11-08T20:03:21.700Z,7.80
2022-11-08T20:04:54.742Z,7.60
2022-11-08T20:06:29.310Z,7.33
2022-11-08T20:08:05.982Z,7.20
2022-11-08T20:09:39.055Z,7.50
2022-11-08T20:11:13.237Z,7.60
2022-11-08T20:12:46.566Z,7.83
2022-11-08T20:14:19.680Z,7.50
2022-11-08T20:15:52.764Z,6.93
2022-11-08T20:17:25.819Z,6.87
2022-11-08T20:19:04.042Z,7.27
2022-11-08T20:20:39.758Z,7.23
2022-11-08T20:22:14.166Z,6.87
2022-11-08T20:23:47.605Z,7.40
2022-11-08T20:25:20.652Z,7.20
2022-11-08T20:26:55.224Z,6.60
2022-11-08T20:28:28.318Z,7.03
2022-11-08T20:30:01.381Z,6.70
2022-11-08T20:31:35.007Z,6.67
2022-11-08T20:33:08.213Z,6.53
2022-11-08T20:34:41.379Z,6.60
2022-11-08T20:36:16.345Z,6.60
2022-11-08T20:37:50.759Z,6.90
2022-11-08T20:39:23.820Z,5.97
2022-11-08T20:40:58.057Z,6.43
2022-11-08T20:42:31.100Z,6.47
2022-11-08T20:44:04.518Z,6.10
2022-11-08T20:45:40.403Z,5.87
2022-11-08T20:47:13.507Z,6.67
2022-11-08T20:48:51.386Z,6.20
2022-11-08T20:50:24.722Z,5.80
2022-11-08T20:51:57.792Z,5.87
2022-11-08T20:53:34.859Z,6.17
2022-11-08T20:55:08.339Z,5.73
2022-11-08T20:56:41.384Z,6.77
2022-11-08T20:58:14.449Z,7.10
2022-11-08T20:59:47.627Z,6.20
2022-11-08T21:01:22.931Z,6.53
2022-11-08T21:02:56.011Z,5.80
2022-11-08T21:04:29.029Z,5.93
2022-11-08T21:06:03.706Z,5.60
2022-11-08T21:09:41.578Z,5.50
2022-11-08T21:11:22.771Z,5.00
2022-11-08T21:12:55.908Z,5.27
2022-11-08T21:14:29.044Z,5.40
2022-11-08T21:16:26.950Z,5.50
2022-11-08T21:17:56.681Z,5.33